createdAt,value
2022-08-07T00:01:44.069Z,66.03
2022-08-07T00:04:09.396Z,65.92
2022-08-07T00:06:51.171Z,66.22
2022-08-07T00:09:22.654Z,66.40
2022-08-07T00:11:55.997Z,66.14
2022-08-07T00:14:30.920Z,66.19
2022-08-07T00:17:02.405Z,66.38
2022-08-07T00:19:59.955Z,66.60
2022-08-07T00:22:24.382Z,66.52
2022-08-07T00:25:07.349Z,66.77
2022-08-07T00:27:53.141Z,67.05
2022-08-07T00:30:27.037Z,66.89
2022-08-07T00:32:57.546Z,67.11
2022-08-07T00:35:26.911Z,66.70
2022-08-07T00:38:00.364Z,66.74
2022-08-07T00:40:39.896Z,66.73
2022-08-07T00:44:01.684Z,66.65
2022-08-07T00:46:02.356Z,66.80
2022-08-07T00:48:31.978Z,67.00
2022-08-07T00:51:01.224Z,67.10
2022-08-07T00:53:39.348Z,67.14
2022-08-07T00:56:15.800Z,67.26
2022-08-07T00:58:47.332Z,67.92
2022-08-07T01:01:20.352Z,67.81
2022-08-07T01:03:56.149Z,68.43
2022-08-07T01:06:29.527Z,68.87
2022-08-07T01:09:00.993Z,68.88
2022-08-07T01:12:23.439Z,69.06
2022-08-07T01:14:28.831Z,69.09
2022-08-07T01:16:58.580Z,69.04
2022-08-07T01:19:32.601Z,69.00
2022-08-07T01:22:03.168Z,69.14
2022-08-07T01:24:36.413Z,69.35
2022-08-07T01:27:04.872Z,69.42
2022-08-07T01:29:34.353Z,69.88
2022-08-07T01:32:05.541Z,70.00
2022-08-07T01:34:44.489Z,70.79
2022-08-07T01:37:17.385Z,71.09
2022-08-07T01:39:48.035Z,71.22
2022-08-07T01:42:38.917Z,71.46
2022-08-07T01:45:18.290Z,71.13
2022-08-07T01:48:19.533Z,71.17
2022-08-07T01:50:49.704Z,71.17
2022-08-07T01:54:09.015Z,71.21
2022-08-07T01:56:49.452Z,70.85
2022-08-07T01:59:32.610Z,71.01
2022-08-07T02:02:07.447Z,71.46
2022-08-07T02:04:59.219Z,71.68
2022-08-07T02:07:49.906Z,71.42
2022-08-07T02:10:27.792Z,71.53
2022-08-07T02:13:01.687Z,72.07
2022-08-07T02:15:39.874Z,71.88
2022-08-07T02:18:13.376Z,72.01
2022-08-07T02:20:48.744Z,72.10
2022-08-07T02:23:25.699Z,71.95
2022-08-07T02:26:30.864Z,72.02
2022-08-07T02:28:45.467Z,72.64
2022-08-07T02:31:28.262Z,73.16
2022-08-07T02:34:03.058Z,73.48
2022-08-07T02:36:34.543Z,73.83
2022-08-07T02:39:17.545Z,73.54
2022-08-07T02:42:02.031Z,73.41
2022-08-07T02:44:34.875Z,73.56
2022-08-07T02:47:07.764Z,73.74
2022-08-07T02:49:57.520Z,74.12
2022-08-07T02:52:34.693Z,74.20
2022-08-07T02:55:27.847Z,74.25
2022-08-07T02:58:03.996Z,73.93
2022-08-07T03:00:35.220Z,73.68
2022-08-07T03:03:07.363Z,73.64
2022-08-07T03:05:49.658Z,74.17
2022-08-07T03:08:26.728Z,74.15
2022-08-07T03:10:58.221Z,74.03
2022-08-07T03:13:39.110Z,73.79
2022-08-07T03:16:23.079Z,73.58
2022-08-07T03:18:56.656Z,73.79
2022-08-07T03:21:24.663Z,73.74
2022-08-07T03:24:20.055Z,73.71
2022-08-07T03:26:58.821Z,73.98
2022-08-07T03:29:39.851Z,74.23
2022-08-07T03:32:16.759Z,74.62
2022-08-07T03:35:16.897Z,74.77
2022-08-07T03:37:46.154Z,74.76
2022-08-07T03:40:22.927Z,74.67
2022-08-07T03:42:55.552Z,74.64
2022-08-07T03:45:30.936Z,74.64
2022-08-07T03:48:04.384Z,74.13
2022-08-07T03:50:38.814Z,74.64
2022-08-07T03:53:07.067Z,74.68
2022-08-07T03:55:57.371Z,74.79
2022-08-07T03:59:05.486Z,75.06
2022-08-07T04:01:16.208Z,75.17
2022-08-07T04:03:53.233Z,74.90
2022-08-07T04:06:37.187Z,75.03
2022-08-07T04:09:15.650Z,75.44
2022-08-07T04:12:28.231Z,75.28
2022-08-07T04:14:43.912Z,75.37
2022-08-07T04:17:20.979Z,75.59
2022-08-07T04:19:54.427Z,75.59
2022-08-07T04:22:29.207Z,75.33
2022-08-07T04:25:01.087Z,75.24
2022-08-07T04:27:35.519Z,75.00
2022-08-07T04:30:11.639Z,74.82
2022-08-07T04:32:58.355Z,74.80
2022-08-07T04:35:28.640Z,74.95
2022-08-07T04:38:09.130Z,74.87
2022-08-07T04:40:52.608Z,75.14
2022-08-07T04:44:12.844Z,74.91
2022-08-07T04:46:59.356Z,74.89
2022-08-07T04:49:37.742Z,74.60
2022-08-07T04:52:51.316Z,74.69
2022-08-07T04:58:23.578Z,74.16
2022-08-07T04:59:17.570Z,74.13
2022-08-07T05:02:09.031Z,74.61
2022-08-07T05:05:54.451Z,74.64
2022-08-07T05:08:18.864Z,74.72
2022-08-07T05:11:19.711Z,74.73
2022-08-07T05:14:53.679Z,74.53
2022-08-07T05:16:57.545Z,74.72
2022-08-07T05:19:45.037Z,74.74
2022-08-07T05:22:26.714Z,74.49
2022-08-07T05:24:59.861Z,74.09
2022-08-07T05:28:03.550Z,73.85
2022-08-07T05:30:30.280Z,73.33
2022-08-07T05:33:03.851Z,71.77
2022-08-07T05:35:42.216Z,67.90
2022-08-07T05:38:12.794Z,60.47
2022-08-07T05:41:05.536Z,54.62
2022-08-07T05:44:08.115Z,50.82
2022-08-07T05:46:36.165Z,47.14
2022-08-07T05:49:11.702Z,44.79
2022-08-07T05:51:46.348Z,42.80
2022-08-07T05:54:30.971Z,41.76
2022-08-07T05:57:08.131Z,40.92
2022-08-07T05:59:56.225Z,39.17
2022-08-07T06:02:31.789Z,42.37
2022-08-07T06:05:15.395Z,47.75
2022-08-07T06:08:13.361Z,52.46
2022-08-07T06:10:37.533Z,55.71
2022-08-07T06:13:06.692Z,58.36
2022-08-07T06:15:43.287Z,59.86
2022-08-07T06:18:18.271Z,61.39
2022-08-07T06:20:49.599Z,62.45
2022-08-07T06:23:46.068Z,62.80
2022-08-07T06:26:05.338Z,63.53
2022-08-07T06:28:34.448Z,63.88
2022-08-07T06:31:01.564Z,64.28
2022-08-07T06:33:33.053Z,64.72
2022-08-07T06:36:12.246Z,65.54
2022-08-07T06:40:13.081Z,65.36
2022-08-07T06:42:01.935Z,65.38
2022-08-07T06:45:04.388Z,65.15
2022-08-07T06:47:38.653Z,65.39
2022-08-07T06:50:19.015Z,64.92
2022-08-07T06:52:54.063Z,64.43
2022-08-07T06:55:53.527Z,64.94
2022-08-07T06:58:21.618Z,64.79
2022-08-07T07:00:59.036Z,64.35
2022-08-07T07:03:48.089Z,63.67
2022-08-07T07:06:15.292Z,63.07
2022-08-07T07:08:53.824Z,63.28
2022-08-07T07:12:09.603Z,62.71
2022-08-07T07:14:10.997Z,62.25
2022-08-07T07:16:50.645Z,61.81
2022-08-07T07:19:57.554Z,61.65
2022-08-07T07:22:36.953Z,61.28
2022-08-07T07:26:31.455Z,61.07
2022-08-07T07:28:41.948Z,60.88
2022-08-07T07:31:03.675Z,60.97
2022-08-07T07:33:34.946Z,60.83
2022-08-07T07:36:12.540Z,60.37
2022-08-07T07:38:43.526Z,60.13
2022-08-07T07:41:16.502Z,59.58
2022-08-07T07:44:13.840Z,59.83
2022-08-07T07:46:55.224Z,58.66
2022-08-07T07:50:35.520Z,58.79
2022-08-07T07:52:18.690Z,57.99
2022-08-07T07:54:51.316Z,57.69
2022-08-07T07:57:53.385Z,57.36
2022-08-07T08:00:15.010Z,57.00
2022-08-07T08:03:06.303Z,56.66
2022-08-07T08:05:50.787Z,56.21
2022-08-07T08:08:35.262Z,55.75
2022-08-07T08:11:08.433Z,54.81
2022-08-07T08:13:54.130Z,54.99
2022-08-07T08:16:37.991Z,54.54
2022-08-07T08:19:17.602Z,54.24
2022-08-07T08:22:18.097Z,53.25
2022-08-07T08:25:25.035Z,52.46
2022-08-07T08:28:03.820Z,51.94
2022-08-07T08:30:37.472Z,51.57
2022-08-07T08:33:18.721Z,50.62
2022-08-07T08:35:55.848Z,51.14
2022-08-07T08:38:34.246Z,50.90
2022-08-07T08:41:31.418Z,50.27
2022-08-07T08:44:15.475Z,48.61
2022-08-07T08:47:05.052Z,48.47
2022-08-07T08:50:05.701Z,47.38
2022-08-07T08:53:03.554Z,48.15
2022-08-07T08:55:55.309Z,47.50
2022-08-07T08:58:50.560Z,47.05
2022-08-07T09:01:40.234Z,46.89
2022-08-07T09:04:26.030Z,47.04
2022-08-07T09:07:23.257Z,46.23
2022-08-07T09:10:06.272Z,46.44
2022-08-07T09:12:57.767Z,45.68
2022-08-07T09:16:22.882Z,45.56
2022-08-07T09:18:58.564Z,45.61
2022-08-07T09:21:57.940Z,45.35
2022-08-07T09:24:56.128Z,44.79
2022-08-07T09:28:00.240Z,44.58
2022-08-07T09:31:00.603Z,43.34
2022-08-07T09:34:18.029Z,42.21
2022-08-07T09:37:14.687Z,42.40
2022-08-07T09:40:05.698Z,42.90
2022-08-07T09:43:03.936Z,41.82
2022-08-07T09:47:25.465Z,42.25
2022-08-07T09:50:02.148Z,41.72
2022-08-07T09:52:34.560Z,41.92
2022-08-07T09:55:28.872Z,40.62
2022-08-07T09:58:18.008Z,41.11
2022-08-07T10:01:50.628Z,41.43
2022-08-07T10:04:46.145Z,40.03
2022-08-07T10:08:09.230Z,39.95
2022-08-07T10:11:59.801Z,40.96
2022-08-07T10:14:35.407Z,40.80
2022-08-07T10:18:01.758Z,40.07
2022-08-07T10:22:14.698Z,40.42
2022-08-07T10:24:59.501Z,40.18
2022-08-07T10:28:12.611Z,40.90
2022-08-07T10:31:11.327Z,41.02
2022-08-07T10:34:06.677Z,39.83
2022-08-07T10:37:12.728Z,38.12
2022-08-07T10:40:06.171Z,36.97
2022-08-07T10:42:57.133Z,37.86
2022-08-07T10:45:44.568Z,36.94
2022-08-07T10:48:34.880Z,37.09
2022-08-07T10:52:01.940Z,36.45
2022-08-07T10:55:01.411Z,36.77
2022-08-07T10:57:57.550Z,37.24
2022-08-07T11:00:36.975Z,36.67
2022-08-07T11:03:28.133Z,36.77
2022-08-07T11:06:28.491Z,36.05
2022-08-07T11:10:10.127Z,36.27
2022-08-07T11:12:38.581Z,35.43
2022-08-07T11:15:21.848Z,35.12
2022-08-07T11:18:05.959Z,35.24
2022-08-07T11:21:02.581Z,34.22
2022-08-07T11:24:18.243Z,34.90
2022-08-07T11:27:13.407Z,33.44
2022-08-07T11:30:17.799Z,34.07
2022-08-07T11:33:08.164Z,34.54
2022-08-07T11:36:20.468Z,33.68
2022-08-07T11:39:39.755Z,33.38
2022-08-07T11:42:29.856Z,34.22
2022-08-07T11:45:12.264Z,33.26
2022-08-07T11:48:33.411Z,33.56
2022-08-07T11:51:44.692Z,33.29
2022-08-07T11:54:55.596Z,32.34
2022-08-07T11:57:59.988Z,32.01
2022-08-07T12:01:05.240Z,31.57
2022-08-07T12:04:29.343Z,32.22
2022-08-07T12:07:20.337Z,31.99
2022-08-07T12:10:05.659Z,33.12
2022-08-07T12:12:44.288Z,33.86
2022-08-07T12:15:46.089Z,34.12
2022-08-07T12:18:34.206Z,33.13
2022-08-07T12:21:55.583Z,33.34
2022-08-07T12:25:07.998Z,33.43
2022-08-07T12:28:08.516Z,32.44
2022-08-07T12:30:40.716Z,31.14
2022-08-07T12:33:28.079Z,31.98
2022-08-07T12:36:02.246Z,31.66
2022-08-07T12:38:42.684Z,31.46
2022-08-07T12:41:12.982Z,31.69
2022-08-07T12:44:04.135Z,30.58
2022-08-07T12:47:26.861Z,30.69
2022-08-07T12:50:38.218Z,31.49
2022-08-07T12:53:17.513Z,31.40
2022-08-07T12:56:30.864Z,30.64
2022-08-07T12:59:04.949Z,30.55
2022-08-07T13:02:33.501Z,30.59
2022-08-07T13:06:03.406Z,29.95
2022-08-07T13:08:34.291Z,29.39
2022-08-07T13:12:02.384Z,30.31
2022-08-07T13:14:55.322Z,30.43
2022-08-07T13:17:52.615Z,29.72
2022-08-07T13:20:46.410Z,30.11
2022-08-07T13:24:01.502Z,29.29
2022-08-07T13:26:46.084Z,29.34
2022-08-07T13:30:19.672Z,28.93
2022-08-07T13:33:16.604Z,30.15
2022-08-07T13:36:29.014Z,30.15
2022-08-07T13:39:13.058Z,29.12
2022-08-07T13:41:57.904Z,29.71
2022-08-07T13:44:34.490Z,29.62
2022-08-07T13:47:09.364Z,28.58
2022-08-07T13:50:33.174Z,29.87
2022-08-07T13:52:43.043Z,29.47
2022-08-07T13:55:26.593Z,28.84
2022-08-07T13:58:28.021Z,28.88
2022-08-07T14:01:09.265Z,28.43
2022-08-07T14:04:05.182Z,29.30
2022-08-07T14:06:35.940Z,28.52
2022-08-07T14:09:05.986Z,29.19
2022-08-07T14:11:53.398Z,28.99
2022-08-07T14:14:42.192Z,29.65
2022-08-07T14:18:12.231Z,28.99
2022-08-07T14:20:39.864Z,29.07
2022-08-07T14:23:59.593Z,29.18
2022-08-07T14:26:29.944Z,29.11
2022-08-07T14:29:10.359Z,28.61
2022-08-07T14:31:56.421Z,28.22
2022-08-07T14:34:30.359Z,28.93
2022-08-07T14:37:08.046Z,28.79
2022-08-07T14:40:17.894Z,28.57
2022-08-07T14:43:00.809Z,28.83
2022-08-07T14:45:46.504Z,28.63
2022-08-07T14:48:21.924Z,27.36
2022-08-07T14:54:30.493Z,27.54
2022-08-07T14:56:50.859Z,27.79
2022-08-07T15:02:34.379Z,28.20
2022-08-07T15:05:04.041Z,27.75
2022-08-07T15:13:25.389Z,27.09
2022-08-07T15:16:03.441Z,27.48
2022-08-07T15:18:49.246Z,27.43
2022-08-07T15:21:58.838Z,26.74
2022-08-07T15:25:12.790Z,26.92
2022-08-07T15:27:23.419Z,26.87
2022-08-07T15:42:45.804Z,27.01
2022-08-07T15:44:17.144Z,27.96
2022-08-07T15:50:05.021Z,28.17
2022-08-07T15:52:32.719Z,27.05
2022-08-07T15:55:08.958Z,27.24
2022-08-07T15:57:49.051Z,26.06
2022-08-07T16:00:31.696Z,26.36
2022-08-07T16:03:47.260Z,27.30
2022-08-07T16:06:13.106Z,27.38
2022-08-07T16:08:45.613Z,28.10
2022-08-07T16:11:55.083Z,28.40
2022-08-07T16:15:09.979Z,28.62
2022-08-07T16:18:50.433Z,29.00
2022-08-07T16:22:02.668Z,28.85
2022-08-07T16:24:57.351Z,29.07
2022-08-07T16:27:41.654Z,29.92
2022-08-07T16:30:31.784Z,28.84
2022-08-07T16:34:02.135Z,28.26
2022-08-07T16:36:35.230Z,28.10
2022-08-07T16:40:28.081Z,26.62
2022-08-07T16:44:05.576Z,26.11
2022-08-07T16:47:12.450Z,25.94
2022-08-07T16:50:37.047Z,27.66
2022-08-07T16:53:55.424Z,27.36
2022-08-07T16:56:55.201Z,28.09
2022-08-07T16:59:46.705Z,27.45
2022-08-07T17:03:06.096Z,28.09
2022-08-07T17:06:29.627Z,28.36
2022-08-07T17:09:09.880Z,28.79
2022-08-07T17:12:35.752Z,30.05
2022-08-07T17:15:21.183Z,30.48
2022-08-07T17:18:29.798Z,31.07
2022-08-07T17:20:58.038Z,31.61
2022-08-07T17:23:32.596Z,31.71
2022-08-07T17:26:23.928Z,32.27
2022-08-07T17:29:05.964Z,33.51
2022-08-07T17:32:31.150Z,33.62
2022-08-07T17:35:51.396Z,32.52
2022-08-07T17:38:33.520Z,32.38
2022-08-07T17:41:12.489Z,32.23
2022-08-07T17:44:14.254Z,32.41
2022-08-07T17:47:03.894Z,31.81
2022-08-07T17:49:56.050Z,31.43
2022-08-07T17:52:43.584Z,31.37
2022-08-07T17:56:00.297Z,31.24
2022-08-07T17:58:46.486Z,30.55
2022-08-07T18:01:27.721Z,30.62
2022-08-07T18:04:31.271Z,30.27
2022-08-07T18:07:20.281Z,29.75
2022-08-07T18:10:05.806Z,28.75
2022-08-07T18:12:53.921Z,29.49
2022-08-07T18:15:32.919Z,29.99
2022-08-07T18:18:45.094Z,30.11
2022-08-07T18:21:27.470Z,30.24
2022-08-07T18:24:34.170Z,30.14
2022-08-07T18:27:49.832Z,30.17
2022-08-07T18:30:38.069Z,30.33
2022-08-07T18:33:54.994Z,30.13
2022-08-07T18:36:37.864Z,30.58
2022-08-07T18:40:09.060Z,31.17
2022-08-07T18:42:39.933Z,31.38
2022-08-07T18:45:44.659Z,31.83
2022-08-07T18:50:30.762Z,32.66
2022-08-07T18:52:40.769Z,33.24
2022-08-07T18:55:42.617Z,34.49
2022-08-07T18:58:39.320Z,35.25
2022-08-07T19:02:18.139Z,35.69
2022-08-07T19:04:59.479Z,36.10
2022-08-07T19:08:14.917Z,36.71
2022-08-07T19:11:35.922Z,36.79
2022-08-07T19:14:16.994Z,37.81
2022-08-07T19:17:05.968Z,37.97
2022-08-07T19:20:03.685Z,38.39
2022-08-07T19:23:01.956Z,38.59
2022-08-07T19:26:24.982Z,39.11
2022-08-07T19:30:56.548Z,39.72
2022-08-07T19:32:11.515Z,39.89
2022-08-07T19:34:33.958Z,40.09
2022-08-07T19:37:10.360Z,40.26
2022-08-07T19:40:10.315Z,40.42
2022-08-07T19:42:45.580Z,40.72
2022-08-07T19:46:05.077Z,41.33
2022-08-07T19:48:18.490Z,41.49
2022-08-07T19:50:53.294Z,41.47
2022-08-07T19:54:34.443Z,41.92
2022-08-07T19:57:51.208Z,42.26
2022-08-07T19:59:02.704Z,42.67
2022-08-07T20:01:56.288Z,43.09
2022-08-07T20:04:42.156Z,43.15
2022-08-07T20:07:46.056Z,43.66
2022-08-07T20:10:55.399Z,44.05
2022-08-07T20:13:33.004Z,44.43
2022-08-07T20:16:04.456Z,44.67
2022-08-07T20:18:35.206Z,44.88
2022-08-07T20:21:21.398Z,44.89
2022-08-07T20:24:00.132Z,45.08
2022-08-07T20:26:44.725Z,45.47
2022-08-07T20:29:49.098Z,45.76
2022-08-07T20:32:11.403Z,45.86
2022-08-07T20:34:54.449Z,46.36
2022-08-07T20:37:29.696Z,46.77
2022-08-07T20:40:05.377Z,46.76
2022-08-07T20:42:56.663Z,47.18
2022-08-07T20:45:32.889Z,47.51
2022-08-07T20:48:28.606Z,47.66
2022-08-07T20:51:00.568Z,47.95
2022-08-07T20:54:03.567Z,48.16
2022-08-07T20:56:28.051Z,48.54
2022-08-07T20:59:05.832Z,48.50
2022-08-07T21:01:45.880Z,48.56
2022-08-07T21:04:28.668Z,48.98
2022-08-07T21:07:03.933Z,49.14
2022-08-07T21:09:52.723Z,49.34
2022-08-07T21:12:31.333Z,49.55
2022-08-07T21:15:05.284Z,50.16
2022-08-07T21:18:05.995Z,50.61
2022-08-07T21:20:30.128Z,50.89
2022-08-07T21:23:50.322Z,50.96
2022-08-07T21:26:39.590Z,51.35
2022-08-07T21:29:18.616Z,51.70
2022-08-07T21:32:43.006Z,52.18
2022-08-07T21:35:34.481Z,52.40
2022-08-07T21:38:49.932Z,53.01
2022-08-07T21:41:37.925Z,53.39
2022-08-07T21:44:53.870Z,53.64
2022-08-07T21:47:38.000Z,54.00
2022-08-07T21:50:16.527Z,54.22
2022-08-07T21:53:17.117Z,54.17
2022-08-07T21:56:48.162Z,54.60
2022-08-07T22:00:04.486Z,54.60
2022-08-07T22:03:17.152Z,55.08
2022-08-07T22:06:00.534Z,55.33
2022-08-07T22:08:42.537Z,55.24
2022-08-07T22:11:11.234Z,55.52
2022-08-07T22:13:52.190Z,55.60
2022-08-07T22:16:49.180Z,56.30
2022-08-07T22:19:32.527Z,56.44
2022-08-07T22:22:29.023Z,56.60
2022-08-07T22:25:08.382Z,56.53
2022-08-07T22:28:29.373Z,56.66
2022-08-07T22:31:06.709Z,57.12
2022-08-07T22:33:56.450Z,57.22
2022-08-07T22:36:53.168Z,57.77
2022-08-07T22:39:52.549Z,58.04
2022-08-07T22:42:29.673Z,58.30
2022-08-07T22:45:04.343Z,58.09
2022-08-07T22:48:31.414Z,58.43
2022-08-07T22:51:20.136Z,58.71
2022-08-07T22:54:40.675Z,58.90
2022-08-07T22:57:41.548Z,59.64
2022-08-07T23:00:21.590Z,59.90
2022-08-07T23:03:28.418Z,60.03
2022-08-07T23:06:37.215Z,60.31
2022-08-07T23:10:00.937Z,60.42
2022-08-07T23:12:52.633Z,60.62
2022-08-07T23:16:44.929Z,60.88
2022-08-07T23:20:02.994Z,61.18
2022-08-07T23:23:01.258Z,61.31
2022-08-07T23:26:23.463Z,61.71
2022-08-07T23:29:43.425Z,62.01
2022-08-07T23:34:33.552Z,62.03
2022-08-07T23:36:17.258Z,62.09
2022-08-07T23:39:12.621Z,62.70
2022-08-07T23:42:04.657Z,62.92
2022-08-07T23:44:56.316Z,63.55
2022-08-07T23:47:51.768Z,63.89
2022-08-07T23:50:54.555Z,63.83
2022-08-07T23:53:51.530Z,63.99
2022-08-07T23:56:53.654Z,64.42
